Time;durP1;ratioP1;P1;durP2;ratioP2;P2;SDS_P1;SDS_P2;PMS_P1;PMS_P2;Temp;Humidity;BMP_temperature;BMP_pressure;BME280_temperature;BME280_humidity;BME280_pressure;Samples;Min_cycle;Max_cycle;Signal;HPM_P1;HPM_P2
2022/03/24 00:00:29;;;;;;;154.65;55.67;;;;;;;4.50;44.65;95800.06;4899262;29;20041;-79
2022/03/24 00:02:55;;;;;;;108.93;44.40;;;;;;;4.44;44.02;95808.47;4899099;29;20486;-78
2022/03/24 00:05:20;;;;;;;93.78;44.47;;;;;;;4.39;43.56;95797.88;4898546;29;20032;-79
2022/03/24 00:07:46;;;;;;;93.82;42.95;;;;;;;4.38;43.32;95804.00;4866712;29;20496;-78
2022/03/24 00:10:11;;;;;;;106.22;44.17;;;;;;;4.31;44.14;95792.78;4882529;29;20036;-79
2022/03/24 00:12:37;;;;;;;84.03;40.45;;;;;;;4.18;44.76;95794.09;4897695;29;20028;-80
2022/03/24 00:15:04;;;;;;;71.72;32.50;;;;;;;4.13;44.13;95791.25;4898712;29;20344;-79
2022/03/24 00:17:30;;;;;;;79.28;34.63;;;;;;;4.16;44.35;95793.47;4898010;29;20159;-79
2022/03/24 00:19:56;;;;;;;66.63;29.92;;;;;;;4.15;44.02;95784.16;4865842;29;20036;-79
2022/03/24 00:22:22;;;;;;;74.18;31.73;;;;;;;4.11;44.17;95772.59;4866199;29;20115;-79
2022/03/24 00:24:47;;;;;;;58.92;24.58;;;;;;;4.11;44.14;95772.59;4903179;29;20324;-79
2022/03/24 00:27:14;;;;;;;68.20;31.83;;;;;;;4.06;43.99;95763.75;4883913;29;20069;-79
2022/03/24 00:29:39;;;;;;;68.50;31.70;;;;;;;4.03;44.40;95769.25;4908109;29;20073;-79
2022/03/24 00:32:05;;;;;;;70.10;33.00;;;;;;;4.06;44.28;95768.91;4901225;29;20036;-79
2022/03/24 00:34:31;;;;;;;69.32;31.08;;;;;;;4.04;44.70;95765.69;4902563;29;20040;-79
2022/03/24 00:36:56;;;;;;;68.38;28.50;;;;;;;4.04;44.47;95769.06;4885721;29;20037;-79
2022/03/24 00:39:22;;;;;;;72.68;28.45;;;;;;;4.04;44.16;95761.34;4909279;29;20047;-79
2022/03/24 00:41:47;;;;;;;71.07;30.88;;;;;;;4.04;44.60;95763.94;4911310;29;20044;-79
2022/03/24 00:44:13;;;;;;;66.68;31.17;;;;;;;4.02;45.43;95758.16;4900728;29;20029;-78
2022/03/24 00:46:38;;;;;;;82.57;36.50;;;;;;;4.06;45.11;95756.84;4868857;29;20485;-79
2022/03/24 00:49:04;;;;;;;92.95;38.75;;;;;;;4.01;45.74;95751.41;4882729;29;20029;-79
2022/03/24 00:51:29;;;;;;;94.47;40.92;;;;;;;4.01;46.09;95748.81;4897501;29;20056;-78
2022/03/24 00:53:55;;;;;;;96.68;40.97;;;;;;;3.99;45.99;95748.19;4894982;23;20480;-78
2022/03/24 00:56:20;;;;;;;97.32;43.00;;;;;;;4.04;45.88;95745.91;4932677;29;20051;-77
2022/03/24 00:58:45;;;;;;;89.55;41.03;;;;;;;4.02;46.00;95742.72;4931798;29;20036;-78
2022/03/24 01:01:12;;;;;;;97.00;45.58;;;;;;;3.96;45.91;95743.38;4923324;29;20040;-78
2022/03/24 01:03:41;;;;;;;93.63;43.70;;;;;;;3.94;46.69;95745.34;4924767;29;20028;-78
2022/03/24 01:06:07;;;;;;;103.65;43.85;;;;;;;3.94;46.50;95745.34;4910288;29;20035;-78
2022/03/24 01:08:34;;;;;;;109.93;45.92;;;;;;;3.91;46.59;95750.81;4927396;29;20070;-78
2022/03/24 01:11:01;;;;;;;104.65;45.70;;;;;;;3.86;46.42;95747.94;4926429;29;20545;-79
2022/03/24 01:13:28;;;;;;;98.55;43.53;;;;;;;3.74;46.48;95744.09;4924469;29;20040;-78
2022/03/24 01:15:53;;;;;;;79.43;36.80;;;;;;;3.72;46.19;95743.47;4916507;29;20127;-78
2022/03/24 01:18:19;;;;;;;77.47;31.80;;;;;;;3.74;45.90;95744.09;4925268;29;20504;-78
2022/03/24 01:20:46;;;;;;;77.07;26.13;;;;;;;3.81;45.49;95739.91;4893932;29;20067;-79
2022/03/24 01:23:12;;;;;;;49.92;24.90;;;;;;;3.81;45.54;95745.06;4959508;29;20016;-78
2022/03/24 01:25:41;;;;;;;67.43;25.55;;;;;;;3.85;45.54;95739.41;4941776;29;20611;-78
2022/03/24 01:28:13;;;;;;;44.75;21.60;;;;;;;3.90;45.03;95733.75;4932779;29;20048;-79
2022/03/24 01:30:39;;;;;;;65.95;24.05;;;;;;;3.92;45.28;95732.63;4894069;29;20035;-78
2022/03/24 01:33:04;;;;;;;67.60;25.88;;;;;;;3.84;45.63;95726.72;4910798;29;20043;-78
2022/03/24 01:35:31;;;;;;;75.85;31.35;;;;;;;3.78;46.44;95729.97;4959824;29;20516;-79
2022/03/24 01:37:57;;;;;;;72.38;31.60;;;;;;;3.70;46.78;95723.06;4928109;29;20068;-79
2022/03/24 01:40:23;;;;;;;75.93;34.00;;;;;;;3.73;47.21;95722.72;4952100;29;20499;-79
2022/03/24 01:42:49;;;;;;;67.82;31.92;;;;;;;3.71;46.58;95714.38;4928836;29;20127;-79
2022/03/24 01:45:15;;;;;;;84.18;37.50;;;;;;;3.68;47.55;95717.28;4936516;29;20047;-79
2022/03/24 01:47:40;;;;;;;91.32;40.05;;;;;;;3.67;47.34;95714.88;4928230;29;20031;-79
2022/03/24 01:50:07;;;;;;;112.45;45.40;;;;;;;3.60;47.34;95713.00;4930488;29;20043;-78
2022/03/24 01:52:32;;;;;;;101.57;43.70;;;;;;;3.61;47.45;95719.72;4914940;29;20472;-78
2022/03/24 01:54:58;;;;;;;92.55;39.45;;;;;;;3.60;47.30;95713.00;4952689;29;20055;-79
2022/03/24 01:57:25;;;;;;;80.47;38.10;;;;;;;3.52;47.89;95718.16;4956245;29;20481;-79
2022/03/24 01:59:51;;;;;;;76.70;35.10;;;;;;;3.50;47.55;95721.84;4952179;29;20031;-78
2022/03/24 02:02:16;;;;;;;79.60;36.78;;;;;;;3.38;47.68;95716.25;4937884;29;20083;-78
2022/03/24 02:04:43;;;;;;;87.53;35.63;;;;;;;3.31;48.35;95712.75;4915825;29;20087;-78
2022/03/24 02:07:09;;;;;;;70.43;29.70;;;;;;;3.26;47.74;95715.03;4942936;29;20022;-78
2022/03/24 02:09:35;;;;;;;61.83;28.23;;;;;;;3.26;47.26;95705.53;4942058;29;20071;-79
2022/03/24 02:12:01;;;;;;;71.47;29.77;;;;;;;3.25;47.80;95708.25;4933575;29;20118;-78
2022/03/24 02:14:29;;;;;;;64.53;28.08;;;;;;;3.09;47.97;95705.72;4929371;29;20047;-79
2022/03/24 02:16:54;;;;;;;82.72;26.48;;;;;;;3.05;48.12;95719.84;4936184;29;20048;-79
2022/03/24 02:19:21;;;;;;;55.00;26.45;;;;;;;2.98;48.71;95712.81;4928834;29;20415;-78
2022/03/24 02:21:48;;;;;;;71.57;27.33;;;;;;;2.99;48.44;95719.56;4911567;29;20043;-79
2022/03/24 02:24:14;;;;;;;59.17;28.25;;;;;;;3.00;48.50;95705.75;4914512;29;20118;-79
2022/03/24 02:26:42;;;;;;;63.75;29.52;;;;;;;3.00;48.84;95716.00;4930810;29;20023;-79
2022/03/24 02:29:10;;;;;;;73.38;29.30;;;;;;;2.97;49.09;95712.97;4934457;29;20032;-78
2022/03/24 02:31:38;;;;;;;72.25;29.73;;;;;;;3.02;48.71;95718.41;4950629;29;20122;-78
2022/03/24 02:36:49;;;;;;;69.97;30.70;;;;;;;2.91;48.58;95701.56;4928839;29;20039;-78
2022/03/24 02:39:15;;;;;;;77.63;32.60;;;;;;;2.95;49.34;95704.63;4892910;29;20116;-78
2022/03/24 02:41:51;;;;;;;69.75;32.92;;;;;;;2.93;49.58;95698.84;4925962;29;20118;-78
2022/03/24 02:44:17;;;;;;;93.57;39.30;;;;;;;2.93;49.04;95704.78;4945137;29;20063;-77
2022/03/24 02:46:47;;;;;;;92.78;41.80;;;;;;;2.97;48.95;95705.25;4924084;29;20043;-80
2022/03/24 02:49:13;;;;;;;99.57;47.47;;;;;;;2.99;49.35;95698.19;4928075;29;20036;-79
2022/03/24 02:51:39;;;;;;;107.45;50.05;;;;;;;2.95;49.18;95702.88;4917451;29;20024;-80
2022/03/24 02:54:04;;;;;;;94.13;42.42;;;;;;;2.90;49.57;95705.09;4927235;29;20038;-80
2022/03/24 02:56:30;;;;;;;90.32;38.65;;;;;;;2.89;49.93;95703.50;4896286;29;20463;-80
2022/03/24 02:58:56;;;;;;;67.10;31.83;;;;;;;2.83;49.59;95693.88;4936021;29;20051;-80
2022/03/24 03:01:25;;;;;;;81.32;32.95;;;;;;;2.83;49.50;95693.88;4935108;29;20043;-80
2022/03/24 03:03:52;;;;;;;74.70;34.38;;;;;;;2.84;49.41;95690.34;4935516;29;20081;-79
2022/03/24 03:06:19;;;;;;;65.03;31.40;;;;;;;2.86;49.88;95697.88;4918691;29;20039;-79
2022/03/24 03:08:51;;;;;;;70.45;31.85;;;;;;;2.76;50.03;95700.59;4933071;29;20028;-79
2022/03/24 03:11:17;;;;;;;58.08;26.95;;;;;;;2.70;49.47;95694.38;4917750;29;20055;-79
2022/03/24 03:13:43;;;;;;;63.65;26.88;;;;;;;2.69;49.80;95697.09;4896868;29;20048;-79
2022/03/24 03:16:09;;;;;;;65.63;27.98;;;;;;;2.76;49.40;95692.09;4926564;29;20088;-79
2022/03/24 03:18:34;;;;;;;68.25;27.67;;;;;;;2.66;49.79;95697.41;4952831;29;20028;-79
2022/03/24 03:21:03;;;;;;;64.20;29.77;;;;;;;2.63;49.89;95698.56;4920339;29;20043;-79
2022/03/24 03:23:28;;;;;;;60.55;28.27;;;;;;;2.65;50.35;95700.94;4936510;29;20037;-79
2022/03/24 03:25:56;;;;;;;66.47;29.08;;;;;;;2.61;50.44;95694.53;4941182;29;20117;-79
2022/03/24 03:28:22;;;;;;;55.22;26.75;;;;;;;2.57;50.48;95700.94;4929313;29;20032;-79
2022/03/24 03:30:47;;;;;;;80.82;33.75;;;;;;;2.53;50.82;95707.38;4933615;29;20033;-79
2022/03/24 03:33:13;;;;;;;88.80;41.58;;;;;;;2.55;50.20;95705.44;4924190;29;20031;-78
2022/03/24 03:35:39;;;;;;;142.00;69.38;;;;;;;2.52;50.37;95700.63;4956169;28;20039;-78
2022/03/24 03:38:04;;;;;;;103.88;48.05;;;;;;;2.52;50.67;95701.44;4951790;29;20028;-79
2022/03/24 03:40:30;;;;;;;139.40;56.47;;;;;;;2.52;50.88;95700.63;4911918;29;20042;-79
2022/03/24 03:42:55;;;;;;;134.40;59.10;;;;;;;2.53;50.79;95715.06;4931029;29;20416;-79
2022/03/24 03:45:21;;;;;;;135.60;64.05;;;;;;;2.55;51.03;95710.56;4909956;29;20067;-79
2022/03/24 03:47:47;;;;;;;150.18;69.72;;;;;;;2.53;51.40;95708.16;4910076;29;20052;-79
2022/03/24 03:50:12;;;;;;;183.05;86.07;;;;;;;2.55;50.96;95706.25;4927808;29;20048;-79
2022/03/24 03:52:38;;;;;;;162.60;74.20;;;;;;;2.48;51.40;95696.78;4925980;29;20058;-79
2022/03/24 03:55:04;;;;;;;152.90;73.20;;;;;;;2.45;51.01;95695.34;4927962;29;20631;-79
2022/03/24 03:57:30;;;;;;;141.52;65.85;;;;;;;2.45;51.11;95699.69;4911074;29;20046;-80
2022/03/24 03:59:55;;;;;;;132.95;64.15;;;;;;;2.44;51.23;95692.91;4928834;29;20114;-80
2022/03/24 04:02:21;;;;;;;125.20;62.05;;;;;;;2.40;51.49;95703.50;4927240;29;20039;-80
2022/03/24 04:04:46;;;;;;;110.85;57.05;;;;;;;2.30;51.28;95702.06;4949968;29;20035;-79
2022/03/24 04:07:12;;;;;;;134.00;60.70;;;;;;;2.33;51.58;95692.28;4926635;29;20112;-79
2022/03/24 04:09:38;;;;;;;92.35;45.65;;;;;;;2.31;51.43;95694.19;4926014;29;20039;-79
2022/03/24 04:12:04;;;;;;;74.68;39.17;;;;;;;2.26;51.45;95700.75;4928354;29;20396;-79
2022/03/24 04:14:29;;;;;;;77.80;38.13;;;;;;;2.26;51.75;95696.41;4929657;29;20118;-79
2022/03/24 04:16:58;;;;;;;72.97;36.15;;;;;;;2.35;51.07;95703.19;4912176;29;20473;-80
2022/03/24 04:19:25;;;;;;;73.90;36.45;;;;;;;2.30;51.14;95707.19;4931568;29;20463;-79
2022/03/24 04:21:51;;;;;;;88.95;43.53;;;;;;;2.34;50.91;95699.00;4938504;29;20293;-79
2022/03/24 04:24:16;;;;;;;83.38;39.70;;;;;;;2.38;50.46;95715.69;4952006;29;20036;-79
2022/03/24 04:26:42;;;;;;;81.85;38.75;;;;;;;2.29;50.82;95706.41;4926672;29;20027;-80
2022/03/24 04:29:07;;;;;;;52.78;28.45;;;;;;;2.37;50.30;95703.81;4917075;29;20028;-79
2022/03/24 04:31:34;;;;;;;49.88;25.67;;;;;;;2.38;50.14;95702.84;4928317;29;20035;-79
2022/03/24 04:33:59;;;;;;;49.80;25.70;;;;;;;2.39;50.26;95701.09;4932985;29;20543;-79
2022/03/24 04:36:25;;;;;;;46.95;24.88;;;;;;;2.30;50.98;95708.00;4892807;29;20032;-79
2022/03/24 04:38:50;;;;;;;41.13;22.13;;;;;;;2.36;50.83;95702.22;4926599;29;20036;-79
2022/03/24 04:41:16;;;;;;;43.88;21.65;;;;;;;2.45;50.57;95704.81;4926138;29;20032;-79
2022/03/24 04:43:42;;;;;;;27.65;15.23;;;;;;;2.61;49.74;95704.81;4932264;29;20058;-79
2022/03/24 04:46:08;;;;;;;30.98;15.65;;;;;;;2.87;49.44;95702.06;4924249;29;20036;-79
2022/03/24 04:48:36;;;;;;;34.45;17.20;;;;;;;3.18;48.73;95699.59;4931257;29;20048;-79
2022/03/24 04:51:03;;;;;;;31.80;16.48;;;;;;;3.47;48.47;95707.56;4909049;29;20055;-78
2022/03/24 04:53:29;;;;;;;27.38;13.45;;;;;;;3.87;46.84;95714.31;4910936;29;20115;-78
2022/03/24 04:55:55;;;;;;;32.42;13.43;;;;;;;4.38;46.61;95721.59;4925441;29;20511;-78
2022/03/24 04:58:20;;;;;;;26.15;13.02;;;;;;;5.10;44.34;95714.28;4935578;29;20099;-79
2022/03/24 05:00:45;;;;;;;32.92;15.63;;;;;;;5.96;42.84;95708.50;4912489;29;20718;-78
2022/03/24 05:03:11;;;;;;;51.60;21.95;;;;;;;6.94;41.09;95709.69;4924668;29;20590;-78
2022/03/24 05:05:37;;;;;;;43.10;20.70;;;;;;;8.12;37.88;95706.16;4943063;29;20567;-80
2022/03/24 05:08:04;;;;;;;58.58;23.85;;;;;;;9.09;36.14;95703.16;4937668;29;20068;-80
2022/03/24 05:10:38;;;;;;;60.50;27.17;;;;;;;9.89;33.83;95703.81;4937920;29;20044;-80
2022/03/24 05:13:05;;;;;;;45.35;18.92;;;;;;;10.88;32.68;95702.50;4937478;29;20051;-80
2022/03/24 05:15:34;;;;;;;42.05;17.75;;;;;;;11.81;30.89;95695.50;4931327;23;20047;31
2022/03/24 05:17:59;;;;;;;40.10;20.63;;;;;;;12.44;29.54;95707.38;4926181;29;20453;-80
2022/03/24 05:20:25;;;;;;;59.60;26.90;;;;;;;13.05;29.31;95698.47;4927808;29;20080;-80
2022/03/24 05:22:50;;;;;;;58.85;27.00;;;;;;;13.61;27.81;95690.09;4929223;29;20032;-80
2022/03/24 05:25:16;;;;;;;70.65;27.00;;;;;;;14.25;27.19;95697.91;4929352;29;20043;-81
2022/03/24 05:27:42;;;;;;;62.08;26.60;;;;;;;14.55;27.19;95697.72;4919001;29;20075;-81
2022/03/24 05:30:08;;;;;;;58.30;21.98;;;;;;;14.84;26.77;95698.50;4926958;29;20028;-80
2022/03/24 05:32:33;;;;;;;59.65;21.67;;;;;;;14.61;26.74;95692.34;4927350;29;20028;-80
2022/03/24 05:34:59;;;;;;;41.03;19.88;;;;;;;14.50;26.11;95689.78;4928622;29;20032;-78
2022/03/24 05:37:24;;;;;;;34.40;16.00;;;;;;;14.45;26.35;95692.28;4924140;29;20043;-79
2022/03/24 05:39:50;;;;;;;50.42;21.40;;;;;;;14.46;26.54;95694.69;4922728;29;20060;-78
2022/03/24 05:42:15;;;;;;;35.33;16.52;;;;;;;14.47;26.12;95685.00;4930382;29;20040;-78
2022/03/24 05:44:41;;;;;;;38.20;19.85;;;;;;;14.54;25.77;95681.22;4933781;29;20036;-78
2022/03/24 05:47:08;;;;;;;64.35;27.58;;;;;;;14.67;26.60;95691.41;4910823;29;20047;-78
2022/03/24 05:49:34;;;;;;;46.00;18.40;;;;;;;14.83;25.81;95689.84;4925416;29;20024;-79
2022/03/24 05:52:00;;;;;;;51.13;17.55;;;;;;;14.82;26.27;95685.66;4925474;29;20520;-79
2022/03/24 05:54:26;;;;;;;32.45;17.52;;;;;;;14.87;25.17;95690.97;4900720;29;20071;-78
2022/03/24 05:56:51;;;;;;;31.90;15.57;;;;;;;14.65;25.61;95682.22;4918881;29;20477;-79
2022/03/24 05:59:17;;;;;;;39.78;15.43;;;;;;;14.49;25.42;95680.34;4920671;29;20044;-79
2022/03/24 06:01:43;;;;;;;26.10;13.70;;;;;;;14.18;25.89;95687.59;4902635;29;20536;-79
2022/03/24 06:06:37;;;;;;;35.03;15.18;;;;;;;13.77;26.72;95689.38;4944836;23;20047;-78
2022/03/24 06:09:03;;;;;;;34.30;16.10;;;;;;;13.57;26.70;95691.56;4934164;29;20067;-78
2022/03/24 06:11:29;;;;;;;43.53;15.68;;;;;;;13.48;27.30;95682.47;4933137;29;20115;-78
2022/03/24 06:13:55;;;;;;;36.83;16.13;;;;;;;13.30;27.03;95690.44;4916090;29;20035;-79
2022/03/24 06:16:21;;;;;;;39.58;16.55;;;;;;;13.25;27.20;95687.72;4937132;29;20471;-78
2022/03/24 06:18:47;;;;;;;56.20;17.92;;;;;;;13.15;27.59;95686.41;4945550;29;20036;-77
2022/03/24 06:21:14;;;;;;;47.53;17.77;;;;;;;13.23;27.91;95681.94;4943865;29;20035;-79
2022/03/24 06:23:40;;;;;;;44.20;16.33;;;;;;;13.40;27.42;95686.25;4911588;29;20038;-79
2022/03/24 06:26:05;;;;;;;39.85;17.00;;;;;;;13.44;27.52;95678.75;4908872;29;20064;-79
2022/03/24 06:28:31;;;;;;;38.60;14.93;;;;;;;13.61;27.02;95677.03;4934989;29;20034;-78
2022/03/24 06:30:56;;;;;;;41.90;18.50;;;;;;;13.64;27.00;95673.94;4926084;29;20024;-78
2022/03/24 06:33:22;;;;;;;41.25;19.65;;;;;;;13.71;26.99;95679.88;4944145;29;20083;-79
2022/03/24 06:35:48;;;;;;;39.67;19.08;;;;;;;13.69;27.42;95674.06;4935784;29;20126;-79
2022/03/24 06:38:13;;;;;;;46.60;21.17;;;;;;;13.68;27.19;95677.72;4934598;29;20058;-78
2022/03/24 06:40:40;;;;;;;59.72;22.25;;;;;;;13.80;27.48;95675.06;4920406;29;20036;-78
2022/03/24 06:43:09;;;;;;;56.38;24.15;;;;;;;13.90;27.34;95674.47;4897319;29;20051;-78
2022/03/24 06:45:35;;;;;;;53.50;22.25;;;;;;;13.95;26.40;95685.03;4935908;29;20038;-79
2022/03/24 06:48:01;;;;;;;51.95;21.98;;;;;;;13.99;26.70;95678.31;4919056;29;20035;-78
2022/03/24 06:50:27;;;;;;;53.58;20.95;;;;;;;14.01;26.60;95678.91;4894548;29;20032;-79
2022/03/24 06:52:52;;;;;;;48.30;22.88;;;;;;;13.98;26.74;95677.50;4912894;29;20400;-78
2022/03/24 06:55:18;;;;;;;63.25;25.15;;;;;;;13.97;26.80;95664.69;4933827;29;20448;-78
2022/03/24 06:57:43;;;;;;;60.25;24.17;;;;;;;14.02;27.02;95667.41;4937668;29;20492;-78
2022/03/24 07:00:13;;;;;;;58.17;26.77;;;;;;;14.02;26.58;95667.41;4916923;29;20042;-78
2022/03/24 07:02:40;;;;;;;64.68;26.98;;;;;;;14.04;26.61;95660.13;4912028;29;20043;-78
2022/03/24 07:05:07;;;;;;;60.42;24.27;;;;;;;14.08;26.67;95663.84;4926519;29;20060;-78
2022/03/24 07:07:33;;;;;;;72.28;27.38;;;;;;;14.10;27.06;95659.19;4933780;29;20628;-78
2022/03/24 07:10:02;;;;;;;82.05;29.90;;;;;;;14.00;26.96;95653.78;4934619;29;20114;-78
2022/03/24 07:12:28;;;;;;;71.88;27.30;;;;;;;14.03;27.17;95659.34;4896405;29;20035;-78
2022/03/24 07:14:53;;;;;;;65.93;26.90;;;;;;;14.05;27.24;95659.88;4945375;29;20063;-78
2022/03/24 07:17:19;;;;;;;54.55;25.10;;;;;;;14.10;27.86;95656.56;4943083;29;20075;-78
2022/03/24 07:19:45;;;;;;;62.63;25.25;;;;;;;14.18;27.62;95661.44;4942529;29;20518;-77
2022/03/24 07:22:11;;;;;;;63.92;27.75;;;;;;;14.03;26.94;95664.56;4902518;29;20098;-77
2022/03/24 07:24:36;;;;;;;56.25;25.48;;;;;;;13.82;27.45;95652.88;4940996;29;20028;-78
2022/03/24 07:27:02;;;;;;;65.10;26.80;;;;;;;13.92;27.57;95661.97;4937646;29;20047;-79
2022/03/24 07:29:27;;;;;;;68.85;24.50;;;;;;;14.11;27.15;95656.34;4933280;29;20163;-79
2022/03/24 07:31:53;;;;;;;60.20;23.20;;;;;;;14.25;27.30;95662.09;4937389;29;20043;-78
2022/03/24 07:34:19;;;;;;;67.25;22.77;;;;;;;14.31;26.87;95658.53;4910513;29;20028;-78
2022/03/24 07:36:44;;;;;;;55.10;22.77;;;;;;;14.39;26.87;95662.59;4943503;29;20047;-78
2022/03/24 07:39:10;;;;;;;59.00;25.08;;;;;;;14.52;26.97;95661.56;4949288;29;20024;-78
2022/03/24 07:41:36;;;;;;;47.75;20.13;;;;;;;14.47;26.01;95653.59;4928177;29;20028;-78
2022/03/24 07:44:01;;;;;;;42.33;18.98;;;;;;;14.46;26.35;95654.63;4947948;29;20183;-78
2022/03/24 07:46:27;;;;;;;35.33;17.27;;;;;;;14.46;26.03;95650.19;4948869;29;20035;-78
2022/03/24 07:48:52;;;;;;;46.78;19.17;;;;;;;14.53;26.47;95652.69;4943141;29;20058;-78
2022/03/24 07:51:19;;;;;;;52.90;20.92;;;;;;;14.51;26.51;95652.13;4942402;29;20028;-78
2022/03/24 07:53:48;;;;;;;43.35;19.38;;;;;;;14.55;26.22;95656.66;4936439;29;20056;-78
2022/03/24 07:56:14;;;;;;;44.72;17.58;;;;;;;14.42;26.66;95641.19;4934254;29;20038;-78
2022/03/24 07:58:39;;;;;;;42.95;16.13;;;;;;;14.46;26.44;95647.56;4937029;29;20099;-78
2022/03/24 08:01:05;;;;;;;44.33;16.55;;;;;;;14.57;26.59;95648.56;4942285;29;20055;-78
2022/03/24 08:03:31;;;;;;;34.90;17.83;;;;;;;14.70;26.42;95649.06;4906248;23;20049;-78
2022/03/24 08:05:56;;;;;;;39.95;16.05;;;;;;;14.85;26.55;95645.88;4884589;29;20044;-78
2022/03/24 08:10:53;;;;;;;35.65;16.13;;;;;;;15.14;25.89;95643.97;4892690;29;20401;-78
2022/03/24 08:13:18;;;;;;;53.88;15.32;;;;;;;15.19;25.77;95643.25;4895242;29;20501;-77
2022/03/24 08:15:44;;;;;;;40.45;16.75;;;;;;;15.24;25.96;95643.31;4879240;29;20047;-79
2022/03/24 08:20:49;;;;;;;28.60;12.27;;;;;;;15.08;26.17;95634.44;5567223;23;20115;-79
2022/03/24 08:23:14;;;;;;;43.38;13.85;;;;;;;14.80;26.71;95632.69;4913879;29;20532;-77
2022/03/24 08:25:40;;;;;;;44.08;13.50;;;;;;;14.77;26.86;95627.94;4918764;29;20032;-78
2022/03/24 08:28:06;;;;;;;29.48;11.88;;;;;;;14.80;26.46;95624.84;4899534;29;20043;-78
2022/03/24 08:30:32;;;;;;;34.88;13.70;;;;;;;14.81;26.98;95623.84;4885188;29;20492;-78
2022/03/24 08:35:33;;;;;;;31.92;12.75;;;;;;;14.94;27.58;95618.25;5186301;23;20055;-77
2022/03/24 08:38:02;;;;;;;26.73;10.82;;;;;;;15.18;26.90;95618.09;4931982;29;20024;-78
2022/03/24 08:40:28;;;;;;;31.08;11.45;;;;;;;15.17;26.93;95624.38;4920163;29;20047;-78
2022/03/24 08:42:54;;;;;;;23.83;10.63;;;;;;;15.13;26.71;95608.34;4905031;29;20031;-78
2022/03/24 08:45:20;;;;;;;56.35;11.25;;;;;;;15.08;27.15;95617.94;4923909;29;20044;-78
2022/03/24 08:47:46;;;;;;;17.63;8.82;;;;;;;15.21;26.79;95613.16;4922373;29;20036;-78
2022/03/24 08:50:12;;;;;;;22.00;9.20;;;;;;;15.21;26.83;95609.75;4908483;29;20024;-78
2022/03/24 08:52:38;;;;;;;28.17;9.52;;;;;;;15.16;27.10;95600.00;4919676;29;20042;-78
2022/03/24 08:55:05;;;;;;;20.92;9.48;;;;;;;15.26;27.30;95602.75;4920094;29;20027;-77
2022/03/24 08:57:31;;;;;;;23.83;9.40;;;;;;;15.35;26.45;95597.09;4923951;29;20062;-78
2022/03/24 09:00:00;;;;;;;16.77;7.85;;;;;;;15.39;25.95;95599.00;4923626;29;20472;-78
2022/03/24 09:02:25;;;;;;;16.05;8.57;;;;;;;15.42;25.92;95590.63;4920767;29;20039;-78
2022/03/24 09:04:51;;;;;;;47.40;9.57;;;;;;;15.54;24.80;95601.00;4921335;29;20128;-80
2022/03/24 09:07:16;;;;;;;40.53;9.30;;;;;;;15.55;23.99;95595.53;4909021;29;20539;-79
2022/03/24 09:09:42;;;;;;;20.83;9.23;;;;;;;15.59;24.40;95595.84;4925666;29;20040;-79
2022/03/24 09:12:09;;;;;;;17.13;8.02;;;;;;;15.62;24.42;95592.78;4941060;29;20111;-78
2022/03/24 09:14:38;;;;;;;23.95;9.05;;;;;;;15.70;24.22;95599.41;4929446;29;20063;-78
2022/03/24 09:17:04;;;;;;;28.92;9.80;;;;;;;15.74;23.88;95597.88;4929372;29;20040;-82
2022/03/24 09:19:29;;;;;;;29.45;8.95;;;;;;;15.76;23.59;95593.16;4913613;29;20032;-82
2022/03/24 09:21:55;;;;;;;22.08;7.70;;;;;;;15.70;23.78;95584.47;4909240;29;20123;-79
2022/03/24 09:24:21;;;;;;;13.23;7.40;;;;;;;15.61;24.02;95591.94;4928063;29;20035;-78
2022/03/24 09:26:46;;;;;;;16.20;7.57;;;;;;;15.63;23.97;95583.88;4929227;29;20042;-79
2022/03/24 09:29:13;;;;;;;32.63;8.95;;;;;;;15.74;24.07;95582.13;4929096;29;20040;-79
2022/03/24 09:31:38;;;;;;;14.80;8.32;;;;;;;15.82;23.77;95576.47;4935839;29;20500;-79
2022/03/24 09:34:05;;;;;;;21.10;8.27;;;;;;;15.88;23.55;95575.47;4921493;29;20095;-79
2022/03/24 09:36:30;;;;;;;19.83;7.68;;;;;;;15.94;23.50;95564.00;4930136;29;20032;-79
2022/03/24 09:38:56;;;;;;;17.23;7.95;;;;;;;15.95;23.03;95563.00;4924983;29;20047;-78
2022/03/24 09:41:25;;;;;;;29.23;7.80;;;;;;;15.97;22.72;95566.16;4926823;29;20390;-78
2022/03/24 09:43:50;;;;;;;17.73;7.90;;;;;;;16.04;22.70;95555.44;4918298;29;20462;-78
2022/03/24 09:46:16;;;;;;;15.05;7.93;;;;;;;16.10;22.79;95562.31;4910251;29;20031;-79
2022/03/24 09:48:41;;;;;;;24.95;7.22;;;;;;;16.08;22.10;95549.44;4907269;29;20040;-78
2022/03/24 09:51:07;;;;;;;35.80;8.75;;;;;;;16.02;22.07;95547.03;4923705;29;20530;-79
2022/03/24 09:53:33;;;;;;;23.17;8.65;;;;;;;15.94;21.52;95544.84;4926758;29;20431;-78
2022/03/24 09:55:58;;;;;;;19.38;8.13;;;;;;;15.95;21.88;95542.00;4910167;29;20453;-79
2022/03/24 09:58:25;;;;;;;16.10;7.57;;;;;;;15.94;21.96;95543.00;4909940;29;20060;-79
2022/03/24 10:00:51;;;;;;;15.70;8.98;;;;;;;15.97;21.63;95539.91;4924954;29;20028;-78
2022/03/24 10:03:17;;;;;;;15.00;7.63;;;;;;;15.98;21.19;95532.84;4909058;29;20088;-78
2022/03/24 10:06:09;;;;;;;29.08;8.10;;;;;;;15.94;21.28;95531.72;4926717;29;20118;-78
2022/03/24 10:08:35;;;;;;;23.35;7.88;;;;;;;15.99;21.00;95532.59;4927408;29;20412;-78
2022/03/24 10:11:08;;;;;;;22.42;7.65;;;;;;;16.00;21.15;95526.31;4926159;29;20036;-78
2022/03/24 10:13:43;;;;;;;;;;;;;;;16.00;20.50;95525.50;4910685;29;20119;-78
2022/03/24 10:16:09;;;;;;;17.08;10.05;;;;;;;16.02;21.44;95529.47;4925924;29;19919;-77
2022/03/24 10:18:35;;;;;;;53.20;13.38;;;;;;;16.10;20.54;95513.25;4908173;29;20519;-78
2022/03/24 10:21:01;;;;;;;24.70;10.30;;;;;;;16.12;20.52;95523.53;4925024;29;20028;-77
2022/03/24 10:23:26;;;;;;;14.98;8.30;;;;;;;16.13;20.74;95510.16;4924889;29;20032;-78
2022/03/24 10:25:52;;;;;;;15.25;6.78;;;;;;;16.10;20.55;95504.59;4911716;29;20040;-78
2022/03/24 10:28:18;;;;;;;19.55;8.25;;;;;;;16.19;20.90;95496.03;4917010;29;20047;-78
2022/03/24 10:30:49;;;;;;;20.40;7.50;;;;;;;16.30;20.72;95509.25;4922047;29;20051;-79
2022/03/24 10:33:37;;;;;;;11.57;7.47;;;;;;;16.24;20.58;95497.13;4923034;29;20039;-78
2022/03/24 10:36:11;;;;;;;18.33;7.47;;;;;;;16.17;20.82;95495.50;4928645;29;20068;-78
2022/03/24 10:38:39;;;;;;;19.88;7.88;;;;;;;16.27;20.49;95486.13;4913616;29;20028;-78
2022/03/24 10:41:26;;;;;;;18.67;8.10;;;;;;;16.34;20.21;95484.09;4919525;29;20067;-77
2022/03/24 10:43:54;;;;;;;13.05;6.55;;;;;;;16.45;20.34;95483.13;4925857;29;20052;-77
2022/03/24 10:46:24;;;;;;;13.85;6.82;;;;;;;16.58;20.40;95468.75;4926078;29;20051;-77
2022/03/24 10:48:50;;;;;;;10.20;6.22;;;;;;;16.66;20.52;95468.28;4924843;29;20036;-77
2022/03/24 10:51:24;;;;;;;16.02;7.22;;;;;;;16.73;19.80;95467.03;4956829;23;20852;-77
2022/03/24 10:53:50;;;;;;;14.90;6.45;;;;;;;16.80;19.37;95464.22;4920057;29;20079;-77
2022/03/24 10:56:19;;;;;;;17.30;6.53;;;;;;;16.85;19.26;95456.34;4915775;29;20067;-78
2022/03/24 10:58:47;;;;;;;16.95;7.15;;;;;;;16.90;19.58;95466.88;4906616;29;20037;-77
2022/03/24 11:01:14;;;;;;;13.30;7.50;;;;;;;16.97;19.43;95456.16;4915378;29;20084;-77
2022/03/24 11:03:40;;;;;;;14.43;7.35;;;;;;;17.02;19.95;95445.66;4897225;29;20393;-77
2022/03/24 11:06:13;;;;;;;21.08;7.63;;;;;;;17.12;19.72;95452.81;4913444;29;20039;-77
2022/03/24 11:08:39;;;;;;;18.17;8.35;;;;;;;17.17;19.57;95435.19;4913412;29;20076;-78
2022/03/24 11:11:09;;;;;;;17.88;8.20;;;;;;;17.16;19.73;95428.38;4898298;29;20067;-77
2022/03/24 11:13:55;;;;;;;25.52;7.82;;;;;;;17.20;19.51;95434.69;4896472;29;20036;-77
2022/03/24 11:16:22;;;;;;;17.95;7.28;;;;;;;17.16;19.37;95428.38;4928959;29;20095;-77
2022/03/24 11:18:48;;;;;;;27.17;9.88;;;;;;;17.22;19.69;95411.56;4913667;29;20508;-77
2022/03/24 11:21:22;;;;;;;21.50;8.50;;;;;;;17.24;19.64;95425.22;4913858;29;20112;-77
2022/03/24 11:23:48;;;;;;;13.00;7.50;;;;;;;17.26;19.44;95425.00;4913005;29;20448;-77
2022/03/24 11:26:13;;;;;;;19.00;7.43;;;;;;;17.28;19.71;95415.00;4902505;29;20036;-78
2022/03/24 11:28:39;;;;;;;16.58;6.68;;;;;;;17.33;19.45;95415.81;4900714;29;20091;-78
2022/03/24 11:31:09;;;;;;;25.80;7.18;;;;;;;17.38;19.18;95410.56;4913572;29;20040;-77